sensor_id;sensor_type;location;lat;lon;timestamp;P1;durP1;ratioP1;P2;durP2;ratioP2
70605;SDS011;58173;52.500;5.494;2023-04-06T00:00:34;16.10;;;7.00;;
70605;SDS011;58173;52.500;5.494;2023-04-06T00:03:01;15.88;;;7.20;;
70605;SDS011;58173;52.500;5.494;2023-04-06T00:05:29;14.60;;;6.85;;
70605;SDS011;58173;52.500;5.494;2023-04-06T00:07:57;14.77;;;6.60;;
70605;SDS011;58173;52.500;5.494;2023-04-06T00:10:24;14.27;;;6.35;;
70605;SDS011;58173;52.500;5.494;2023-04-06T00:12:52;14.07;;;6.82;;
70605;SDS011;58173;52.500;5.494;2023-04-06T00:15:20;14.93;;;6.90;;
70605;SDS011;58173;52.500;5.494;2023-04-06T00:17:47;16.23;;;6.90;;
70605;SDS011;58173;52.500;5.494;2023-04-06T00:20:15;14.90;;;6.45;;
70605;SDS011;58173;52.500;5.494;2023-04-06T00:22:43;16.73;;;6.75;;
70605;SDS011;58173;52.500;5.494;2023-04-06T00:25:10;14.40;;;7.40;;
70605;SDS011;58173;52.500;5.494;2023-04-06T00:27:38;17.27;;;7.03;;
70605;SDS011;58173;52.500;5.494;2023-04-06T00:30:05;14.82;;;6.50;;
70605;SDS011;58173;52.500;5.494;2023-04-06T00:32:32;15.95;;;6.80;;
70605;SDS011;58173;52.500;5.494;2023-04-06T00:34:59;15.23;;;6.65;;
70605;SDS011;58173;52.500;5.494;2023-04-06T00:37:27;17.52;;;6.65;;
70605;SDS011;58173;52.500;5.494;2023-04-06T00:39:54;17.45;;;6.28;;
70605;SDS011;58173;52.500;5.494;2023-04-06T00:42:22;15.55;;;7.22;;
70605;SDS011;58173;52.500;5.494;2023-04-06T00:44:53;15.15;;;6.55;;
70605;SDS011;58173;52.500;5.494;2023-04-06T00:47:22;15.57;;;6.20;;
70605;SDS011;58173;52.500;5.494;2023-04-06T00:49:49;15.90;;;6.43;;
70605;SDS011;58173;52.500;5.494;2023-04-06T00:52:16;15.48;;;6.63;;
70605;SDS011;58173;52.500;5.494;2023-04-06T00:54:46;16.90;;;7.25;;
70605;SDS011;58173;52.500;5.494;2023-04-06T00:57:14;15.93;;;6.28;;
70605;SDS011;58173;52.500;5.494;2023-04-06T00:59:42;15.40;;;6.68;;
70605;SDS011;58173;52.500;5.494;2023-04-06T01:02:11;16.70;;;6.38;;
70605;SDS011;58173;52.500;5.494;2023-04-06T01:04:44;16.15;;;6.70;;
70605;SDS011;58173;52.500;5.494;2023-04-06T01:07:20;16.33;;;6.65;;
70605;SDS011;58173;52.500;5.494;2023-04-06T01:10:10;13.85;;;6.53;;
70605;SDS011;58173;52.500;5.494;2023-04-06T01:12:37;15.05;;;6.47;;
70605;SDS011;58173;52.500;5.494;2023-04-06T01:15:10;15.18;;;6.93;;
70605;SDS011;58173;52.500;5.494;2023-04-06T01:17:40;14.00;;;6.47;;
70605;SDS011;58173;52.500;5.494;2023-04-06T01:20:12;15.48;;;7.00;;
70605;SDS011;58173;52.500;5.494;2023-04-06T01:22:40;15.23;;;6.78;;
70605;SDS011;58173;52.500;5.494;2023-04-06T01:25:07;15.02;;;6.30;;
70605;SDS011;58173;52.500;5.494;2023-04-06T01:27:55;16.30;;;5.93;;
70605;SDS011;58173;52.500;5.494;2023-04-06T01:30:29;15.15;;;6.32;;
70605;SDS011;58173;52.500;5.494;2023-04-06T01:33:00;15.88;;;6.47;;
70605;SDS011;58173;52.500;5.494;2023-04-06T01:35:37;14.88;;;6.10;;
70605;SDS011;58173;52.500;5.494;2023-04-06T01:38:14;16.77;;;6.30;;
70605;SDS011;58173;52.500;5.494;2023-04-06T01:40:42;14.93;;;6.50;;
70605;SDS011;58173;52.500;5.494;2023-04-06T01:43:10;13.98;;;6.25;;
70605;SDS011;58173;52.500;5.494;2023-04-06T01:45:58;14.98;;;6.47;;
70605;SDS011;58173;52.500;5.494;2023-04-06T01:48:31;16.40;;;6.97;;
70605;SDS011;58173;52.500;5.494;2023-04-06T01:51:05;14.63;;;6.75;;
70605;SDS011;58173;52.500;5.494;2023-04-06T01:53:39;16.83;;;6.20;;
70605;SDS011;58173;52.500;5.494;2023-04-06T01:56:06;15.20;;;6.28;;
70605;SDS011;58173;52.500;5.494;2023-04-06T01:58:37;15.30;;;6.32;;
70605;SDS011;58173;52.500;5.494;2023-04-06T02:01:05;16.80;;;7.05;;
70605;SDS011;58173;52.500;5.494;2023-04-06T02:03:45;14.60;;;5.90;;
70605;SDS011;58173;52.500;5.494;2023-04-06T02:06:12;14.32;;;6.20;;
70605;SDS011;58173;52.500;5.494;2023-04-06T02:08:40;13.63;;;5.95;;
70605;SDS011;58173;52.500;5.494;2023-04-06T02:11:07;14.07;;;6.00;;
70605;SDS011;58173;52.500;5.494;2023-04-06T02:13:51;14.20;;;5.80;;
70605;SDS011;58173;52.500;5.494;2023-04-06T02:16:20;14.38;;;6.10;;
70605;SDS011;58173;52.500;5.494;2023-04-06T02:21:21;18.33;;;6.85;;
70605;SDS011;58173;52.500;5.494;2023-04-06T02:23:48;15.80;;;6.85;;
70605;SDS011;58173;52.500;5.494;2023-04-06T02:26:16;15.80;;;6.63;;
70605;SDS011;58173;52.500;5.494;2023-04-06T02:28:43;14.43;;;5.88;;
70605;SDS011;58173;52.500;5.494;2023-04-06T02:31:11;13.88;;;6.22;;
70605;SDS011;58173;52.500;5.494;2023-04-06T02:33:38;14.75;;;6.25;;
70605;SDS011;58173;52.500;5.494;2023-04-06T02:36:06;14.50;;;5.88;;
70605;SDS011;58173;52.500;5.494;2023-04-06T02:38:33;13.20;;;5.80;;
70605;SDS011;58173;52.500;5.494;2023-04-06T02:41:01;15.38;;;5.88;;
70605;SDS011;58173;52.500;5.494;2023-04-06T02:43:28;14.35;;;6.13;;
70605;SDS011;58173;52.500;5.494;2023-04-06T02:46:03;18.42;;;6.43;;
70605;SDS011;58173;52.500;5.494;2023-04-06T02:48:35;15.05;;;6.47;;
70605;SDS011;58173;52.500;5.494;2023-04-06T02:51:03;13.77;;;6.00;;
70605;SDS011;58173;52.500;5.494;2023-04-06T02:53:30;15.45;;;6.45;;
70605;SDS011;58173;52.500;5.494;2023-04-06T02:55:58;13.98;;;6.15;;
70605;SDS011;58173;52.500;5.494;2023-04-06T02:58:38;14.75;;;6.90;;
70605;SDS011;58173;52.500;5.494;2023-04-06T03:01:06;13.63;;;5.93;;
70605;SDS011;58173;52.500;5.494;2023-04-06T03:03:34;14.00;;;5.63;;
70605;SDS011;58173;52.500;5.494;2023-04-06T03:06:06;14.10;;;5.85;;
70605;SDS011;58173;52.500;5.494;2023-04-06T03:08:33;14.15;;;5.82;;
70605;SDS011;58173;52.500;5.494;2023-04-06T03:11:01;15.07;;;5.93;;
70605;SDS011;58173;52.500;5.494;2023-04-06T03:13:35;13.85;;;6.00;;
70605;SDS011;58173;52.500;5.494;2023-04-06T03:16:05;14.98;;;5.70;;
70605;SDS011;58173;52.500;5.494;2023-04-06T03:18:33;13.82;;;6.63;;
70605;SDS011;58173;52.500;5.494;2023-04-06T03:21:00;15.10;;;6.93;;
70605;SDS011;58173;52.500;5.494;2023-04-06T03:23:36;14.68;;;6.43;;
70605;SDS011;58173;52.500;5.494;2023-04-06T03:26:03;13.70;;;5.80;;
70605;SDS011;58173;52.500;5.494;2023-04-06T03:28:30;15.65;;;6.43;;
70605;SDS011;58173;52.500;5.494;2023-04-06T03:33:40;14.07;;;6.43;;
70605;SDS011;58173;52.500;5.494;2023-04-06T03:36:11;14.57;;;6.10;;
70605;SDS011;58173;52.500;5.494;2023-04-06T03:38:41;15.27;;;6.15;;
70605;SDS011;58173;52.500;5.494;2023-04-06T03:41:11;14.98;;;5.82;;
70605;SDS011;58173;52.500;5.494;2023-04-06T03:43:42;15.20;;;5.88;;
70605;SDS011;58173;52.500;5.494;2023-04-06T03:46:09;12.93;;;5.63;;
70605;SDS011;58173;52.500;5.494;2023-04-06T03:48:36;13.40;;;5.75;;
70605;SDS011;58173;52.500;5.494;2023-04-06T03:51:05;13.90;;;5.63;;
70605;SDS011;58173;52.500;5.494;2023-04-06T03:53:32;13.63;;;5.90;;
70605;SDS011;58173;52.500;5.494;2023-04-06T03:55:59;12.65;;;5.90;;
70605;SDS011;58173;52.500;5.494;2023-04-06T03:58:30;14.35;;;5.78;;
70605;SDS011;58173;52.500;5.494;2023-04-06T04:00:57;16.05;;;6.20;;
70605;SDS011;58173;52.500;5.494;2023-04-06T04:03:24;13.48;;;6.35;;
70605;SDS011;58173;52.500;5.494;2023-04-06T04:05:54;14.60;;;5.90;;
70605;SDS011;58173;52.500;5.494;2023-04-06T04:08:24;14.90;;;6.22;;
70605;SDS011;58173;52.500;5.494;2023-04-06T04:10:52;14.68;;;6.78;;
70605;SDS011;58173;52.500;5.494;2023-04-06T04:13:19;13.35;;;6.18;;
70605;SDS011;58173;52.500;5.494;2023-04-06T04:15:49;12.75;;;5.85;;
70605;SDS011;58173;52.500;5.494;2023-04-06T04:18:16;13.80;;;6.03;;
70605;SDS011;58173;52.500;5.494;2023-04-06T04:20:43;14.02;;;6.20;;
70605;SDS011;58173;52.500;5.494;2023-04-06T04:23:11;14.45;;;5.97;;
70605;SDS011;58173;52.500;5.494;2023-04-06T04:25:39;14.30;;;6.20;;
70605;SDS011;58173;52.500;5.494;2023-04-06T04:28:06;15.27;;;6.65;;
70605;SDS011;58173;52.500;5.494;2023-04-06T04:30:34;15.95;;;6.43;;
70605;SDS011;58173;52.500;5.494;2023-04-06T04:33:06;14.13;;;6.03;;
70605;SDS011;58173;52.500;5.494;2023-04-06T04:35:33;15.52;;;6.53;;
70605;SDS011;58173;52.500;5.494;2023-04-06T04:38:00;15.35;;;6.30;;
70605;SDS011;58173;52.500;5.494;2023-04-06T04:40:28;15.73;;;6.22;;
70605;SDS011;58173;52.500;5.494;2023-04-06T04:43:04;16.58;;;6.40;;
70605;SDS011;58173;52.500;5.494;2023-04-06T04:45:33;15.18;;;6.60;;
70605;SDS011;58173;52.500;5.494;2023-04-06T04:50:48;14.00;;;5.88;;
70605;SDS011;58173;52.500;5.494;2023-04-06T04:53:18;15.05;;;6.32;;
70605;SDS011;58173;52.500;5.494;2023-04-06T04:55:45;14.45;;;6.00;;
70605;SDS011;58173;52.500;5.494;2023-04-06T04:58:13;15.05;;;6.30;;
70605;SDS011;58173;52.500;5.494;2023-04-06T05:00:48;14.27;;;6.43;;
70605;SDS011;58173;52.500;5.494;2023-04-06T05:03:18;15.70;;;6.40;;
70605;SDS011;58173;52.500;5.494;2023-04-06T05:05:54;16.08;;;6.75;;
70605;SDS011;58173;52.500;5.494;2023-04-06T05:08:24;14.90;;;5.95;;
70605;SDS011;58173;52.500;5.494;2023-04-06T05:10:51;14.07;;;6.50;;
70605;SDS011;58173;52.500;5.494;2023-04-06T05:13:19;16.67;;;6.43;;
70605;SDS011;58173;52.500;5.494;2023-04-06T05:15:48;16.25;;;6.50;;
70605;SDS011;58173;52.500;5.494;2023-04-06T05:18:22;13.88;;;6.28;;
70605;SDS011;58173;52.500;5.494;2023-04-06T05:20:49;15.05;;;6.80;;
70605;SDS011;58173;52.500;5.494;2023-04-06T05:23:21;15.60;;;6.18;;
70605;SDS011;58173;52.500;5.494;2023-04-06T05:25:49;15.70;;;6.95;;
70605;SDS011;58173;52.500;5.494;2023-04-06T05:28:20;14.02;;;6.10;;
70605;SDS011;58173;52.500;5.494;2023-04-06T05:30:47;15.23;;;6.43;;
70605;SDS011;58173;52.500;5.494;2023-04-06T05:33:15;14.30;;;6.10;;
70605;SDS011;58173;52.500;5.494;2023-04-06T05:36:06;16.15;;;6.80;;
70605;SDS011;58173;52.500;5.494;2023-04-06T05:38:38;15.45;;;6.45;;
70605;SDS011;58173;52.500;5.494;2023-04-06T05:41:16;14.43;;;6.90;;
70605;SDS011;58173;52.500;5.494;2023-04-06T05:43:43;18.08;;;7.00;;
70605;SDS011;58173;52.500;5.494;2023-04-06T05:46:11;15.38;;;7.03;;
70605;SDS011;58173;52.500;5.494;2023-04-06T05:48:39;16.02;;;7.10;;
70605;SDS011;58173;52.500;5.494;2023-04-06T05:51:07;16.35;;;6.60;;
70605;SDS011;58173;52.500;5.494;2023-04-06T05:53:44;16.10;;;7.32;;
70605;SDS011;58173;52.500;5.494;2023-04-06T05:56:11;17.25;;;7.47;;
70605;SDS011;58173;52.500;5.494;2023-04-06T05:58:39;15.55;;;7.18;;
70605;SDS011;58173;52.500;5.494;2023-04-06T06:01:09;19.42;;;7.68;;
70605;SDS011;58173;52.500;5.494;2023-04-06T06:03:41;17.70;;;7.47;;
70605;SDS011;58173;52.500;5.494;2023-04-06T06:06:08;20.63;;;7.18;;
70605;SDS011;58173;52.500;5.494;2023-04-06T06:08:46;17.35;;;7.13;;
70605;SDS011;58173;52.500;5.494;2023-04-06T06:11:16;17.92;;;7.40;;
70605;SDS011;58173;52.500;5.494;2023-04-06T06:13:43;18.52;;;7.30;;
70605;SDS011;58173;52.500;5.494;2023-04-06T06:16:10;15.95;;;7.10;;
70605;SDS011;58173;52.500;5.494;2023-04-06T06:18:43;17.20;;;7.40;;
70605;SDS011;58173;52.500;5.494;2023-04-06T06:21:10;19.33;;;7.65;;
70605;SDS011;58173;52.500;5.494;2023-04-06T06:23:39;17.27;;;7.85;;
70605;SDS011;58173;52.500;5.494;2023-04-06T06:26:06;18.38;;;7.55;;
70605;SDS011;58173;52.500;5.494;2023-04-06T06:28:33;16.40;;;7.45;;
70605;SDS011;58173;52.500;5.494;2023-04-06T06:31:00;19.80;;;7.88;;
70605;SDS011;58173;52.500;5.494;2023-04-06T06:33:28;17.92;;;7.15;;
70605;SDS011;58173;52.500;5.494;2023-04-06T06:35:57;15.65;;;7.07;;
70605;SDS011;58173;52.500;5.494;2023-04-06T06:38:24;17.85;;;7.80;;
70605;SDS011;58173;52.500;5.494;2023-04-06T06:40:53;19.77;;;8.07;;
70605;SDS011;58173;52.500;5.494;2023-04-06T06:43:23;19.92;;;7.72;;
70605;SDS011;58173;52.500;5.494;2023-04-06T06:46:04;18.65;;;8.10;;
70605;SDS011;58173;52.500;5.494;2023-04-06T06:48:32;20.95;;;8.68;;
70605;SDS011;58173;52.500;5.494;2023-04-06T06:50:59;18.38;;;8.52;;
70605;SDS011;58173;52.500;5.494;2023-04-06T06:53:26;18.08;;;8.40;;
70605;SDS011;58173;52.500;5.494;2023-04-06T06:55:54;21.05;;;8.30;;
70605;SDS011;58173;52.500;5.494;2023-04-06T06:58:22;18.52;;;7.88;;
70605;SDS011;58173;52.500;5.494;2023-04-06T07:00:49;18.88;;;8.15;;
70605;SDS011;58173;52.500;5.494;2023-04-06T07:03:18;19.83;;;9.68;;
70605;SDS011;58173;52.500;5.494;2023-04-06T07:05:45;20.55;;;8.98;;
70605;SDS011;58173;52.500;5.494;2023-04-06T07:08:16;20.98;;;9.10;;
70605;SDS011;58173;52.500;5.494;2023-04-06T07:10:43;23.05;;;10.35;;
70605;SDS011;58173;52.500;5.494;2023-04-06T07:13:10;20.27;;;9.15;;
70605;SDS011;58173;52.500;5.494;2023-04-06T07:15:38;22.00;;;9.13;;
70605;SDS011;58173;52.500;5.494;2023-04-06T07:18:06;17.27;;;7.35;;
70605;SDS011;58173;52.500;5.494;2023-04-06T07:20:33;20.30;;;9.05;;
70605;SDS011;58173;52.500;5.494;2023-04-06T07:23:01;21.92;;;9.98;;
70605;SDS011;58173;52.500;5.494;2023-04-06T07:25:29;24.25;;;9.70;;
70605;SDS011;58173;52.500;5.494;2023-04-06T07:27:56;21.20;;;9.43;;
70605;SDS011;58173;52.500;5.494;2023-04-06T07:30:24;24.10;;;10.27;;
70605;SDS011;58173;52.500;5.494;2023-04-06T07:32:54;23.73;;;10.80;;
70605;SDS011;58173;52.500;5.494;2023-04-06T07:35:23;18.35;;;8.02;;
70605;SDS011;58173;52.500;5.494;2023-04-06T07:37:51;22.45;;;9.80;;
70605;SDS011;58173;52.500;5.494;2023-04-06T07:40:18;17.50;;;7.85;;
70605;SDS011;58173;52.500;5.494;2023-04-06T07:42:47;16.48;;;7.72;;
70605;SDS011;58173;52.500;5.494;2023-04-06T07:45:14;20.85;;;9.38;;
70605;SDS011;58173;52.500;5.494;2023-04-06T07:47:42;25.65;;;9.95;;
70605;SDS011;58173;52.500;5.494;2023-04-06T07:50:10;15.48;;;7.30;;
70605;SDS011;58173;52.500;5.494;2023-04-06T07:52:38;23.02;;;10.20;;
70605;SDS011;58173;52.500;5.494;2023-04-06T07:55:06;16.63;;;6.85;;
70605;SDS011;58173;52.500;5.494;2023-04-06T07:57:34;20.35;;;8.98;;
70605;SDS011;58173;52.500;5.494;2023-04-06T08:00:01;20.67;;;8.00;;
70605;SDS011;58173;52.500;5.494;2023-04-06T08:02:37;24.15;;;10.32;;
70605;SDS011;58173;52.500;5.494;2023-04-06T08:05:04;24.50;;;9.65;;
70605;SDS011;58173;52.500;5.494;2023-04-06T08:07:32;23.08;;;10.35;;
70605;SDS011;58173;52.500;5.494;2023-04-06T08:09:59;23.35;;;10.75;;
70605;SDS011;58173;52.500;5.494;2023-04-06T08:12:26;22.17;;;10.15;;
70605;SDS011;58173;52.500;5.494;2023-04-06T08:14:53;24.77;;;9.98;;
70605;SDS011;58173;52.500;5.494;2023-04-06T08:17:20;21.55;;;9.18;;
70605;SDS011;58173;52.500;5.494;2023-04-06T08:19:47;24.92;;;10.90;;
70605;SDS011;58173;52.500;5.494;2023-04-06T08:22:15;23.17;;;10.52;;
70605;SDS011;58173;52.500;5.494;2023-04-06T08:24:42;24.80;;;10.57;;
70605;SDS011;58173;52.500;5.494;2023-04-06T08:27:09;24.52;;;11.00;;
70605;SDS011;58173;52.500;5.494;2023-04-06T08:29:36;22.48;;;10.70;;
70605;SDS011;58173;52.500;5.494;2023-04-06T08:32:04;24.90;;;10.90;;
70605;SDS011;58173;52.500;5.494;2023-04-06T08:34:32;13.70;;;6.55;;
70605;SDS011;58173;52.500;5.494;2023-04-06T08:36:59;22.13;;;10.65;;
70605;SDS011;58173;52.500;5.494;2023-04-06T08:39:27;24.40;;;10.68;;
70605;SDS011;58173;52.500;5.494;2023-04-06T08:41:56;21.70;;;9.02;;
70605;SDS011;58173;52.500;5.494;2023-04-06T08:44:26;21.05;;;9.48;;
70605;SDS011;58173;52.500;5.494;2023-04-06T08:46:53;24.38;;;11.38;;
70605;SDS011;58173;52.500;5.494;2023-04-06T08:49:21;24.42;;;11.25;;
70605;SDS011;58173;52.500;5.494;2023-04-06T08:51:48;19.98;;;9.55;;
70605;SDS011;58173;52.500;5.494;2023-04-06T08:54:16;23.20;;;9.80;;
70605;SDS011;58173;52.500;5.494;2023-04-06T08:56:44;26.75;;;11.75;;
70605;SDS011;58173;52.500;5.494;2023-04-06T08:59:11;26.70;;;11.90;;
70605;SDS011;58173;52.500;5.494;2023-04-06T09:01:39;25.90;;;11.57;;
70605;SDS011;58173;52.500;5.494;2023-04-06T09:06:38;24.52;;;11.43;;
70605;SDS011;58173;52.500;5.494;2023-04-06T09:09:07;27.85;;;11.88;;
70605;SDS011;58173;52.500;5.494;2023-04-06T09:11:43;27.55;;;12.60;;
70605;SDS011;58173;52.500;5.494;2023-04-06T09:14:10;27.65;;;12.35;;
70605;SDS011;58173;52.500;5.494;2023-04-06T09:16:46;28.05;;;12.65;;
70605;SDS011;58173;52.500;5.494;2023-04-06T09:19:14;28.23;;;12.23;;
70605;SDS011;58173;52.500;5.494;2023-04-06T09:21:41;31.00;;;13.05;;
70605;SDS011;58173;52.500;5.494;2023-04-06T09:24:08;28.65;;;13.32;;
70605;SDS011;58173;52.500;5.494;2023-04-06T09:26:46;21.52;;;9.98;;
70605;SDS011;58173;52.500;5.494;2023-04-06T09:29:23;28.50;;;13.23;;
70605;SDS011;58173;52.500;5.494;2023-04-06T09:32:01;20.92;;;9.75;;
70605;SDS011;58173;52.500;5.494;2023-04-06T09:34:28;23.20;;;10.48;;
70605;SDS011;58173;52.500;5.494;2023-04-06T09:36:56;23.80;;;10.35;;
70605;SDS011;58173;52.500;5.494;2023-04-06T09:39:24;28.13;;;12.98;;
70605;SDS011;58173;52.500;5.494;2023-04-06T09:41:52;25.45;;;10.70;;
70605;SDS011;58173;52.500;5.494;2023-04-06T09:44:20;14.55;;;6.72;;
70605;SDS011;58173;52.500;5.494;2023-04-06T09:46:47;26.25;;;12.68;;
70605;SDS011;58173;52.500;5.494;2023-04-06T09:49:29;29.35;;;12.43;;
70605;SDS011;58173;52.500;5.494;2023-04-06T09:51:58;23.02;;;10.05;;
70605;SDS011;58173;52.500;5.494;2023-04-06T09:54:28;18.30;;;7.15;;
70605;SDS011;58173;52.500;5.494;2023-04-06T09:57:18;16.42;;;7.65;;
70605;SDS011;58173;52.500;5.494;2023-04-06T10:05:19;17.02;;;7.22;;
70605;SDS011;58173;52.500;5.494;2023-04-06T10:07:47;20.30;;;9.55;;
70605;SDS011;58173;52.500;5.494;2023-04-06T10:10:22;21.23;;;9.48;;
70605;SDS011;58173;52.500;5.494;2023-04-06T10:12:49;30.38;;;13.00;;
70605;SDS011;58173;52.500;5.494;2023-04-06T10:15:16;19.42;;;9.50;;
70605;SDS011;58173;52.500;5.494;2023-04-06T10:17:47;24.40;;;12.38;;
70605;SDS011;58173;52.500;5.494;2023-04-06T10:20:21;24.73;;;12.05;;
70605;SDS011;58173;52.500;5.494;2023-04-06T10:25:27;16.90;;;7.72;;
70605;SDS011;58173;52.500;5.494;2023-04-06T10:28:01;17.65;;;7.82;;
70605;SDS011;58173;52.500;5.494;2023-04-06T10:30:41;14.50;;;7.00;;
70605;SDS011;58173;52.500;5.494;2023-04-06T10:33:16;23.30;;;12.50;;
70605;SDS011;58173;52.500;5.494;2023-04-06T10:35:44;20.42;;;9.65;;
70605;SDS011;58173;52.500;5.494;2023-04-06T10:38:11;20.98;;;10.25;;
70605;SDS011;58173;52.500;5.494;2023-04-06T10:40:40;25.42;;;12.90;;
70605;SDS011;58173;52.500;5.494;2023-04-06T10:45:39;25.88;;;11.95;;
70605;SDS011;58173;52.500;5.494;2023-04-06T10:48:12;22.88;;;10.80;;
70605;SDS011;58173;52.500;5.494;2023-04-06T10:50:44;16.27;;;7.63;;
70605;SDS011;58173;52.500;5.494;2023-04-06T10:53:20;18.00;;;8.25;;
70605;SDS011;58173;52.500;5.494;2023-04-06T10:55:47;23.58;;;11.13;;
70605;SDS011;58173;52.500;5.494;2023-04-06T10:58:16;17.60;;;8.90;;
70605;SDS011;58173;52.500;5.494;2023-04-06T11:00:44;22.48;;;10.77;;
70605;SDS011;58173;52.500;5.494;2023-04-06T11:03:16;20.08;;;10.82;;
70605;SDS011;58173;52.500;5.494;2023-04-06T11:05:44;19.02;;;8.57;;
70605;SDS011;58173;52.500;5.494;2023-04-06T11:08:32;16.60;;;8.13;;
70605;SDS011;58173;52.500;5.494;2023-04-06T11:11:09;17.23;;;7.80;;
70605;SDS011;58173;52.500;5.494;2023-04-06T11:16:12;15.25;;;6.97;;
70605;SDS011;58173;52.500;5.494;2023-04-06T11:21:19;16.73;;;7.25;;
70605;SDS011;58173;52.500;5.494;2023-04-06T11:24:31;14.70;;;6.95;;
70605;SDS011;58173;52.500;5.494;2023-04-06T11:26:54;16.05;;;7.25;;
70605;SDS011;58173;52.500;5.494;2023-04-06T11:31:50;14.45;;;6.72;;
70605;SDS011;58173;52.500;5.494;2023-04-06T11:34:18;14.43;;;6.13;;
70605;SDS011;58173;52.500;5.494;2023-04-06T11:36:47;14.57;;;6.53;;
70605;SDS011;58173;52.500;5.494;2023-04-06T11:39:18;13.57;;;6.13;;
70605;SDS011;58173;52.500;5.494;2023-04-06T11:41:49;13.50;;;5.43;;
70605;SDS011;58173;52.500;5.494;2023-04-06T11:44:33;12.60;;;5.63;;
70605;SDS011;58173;52.500;5.494;2023-04-06T11:47:01;12.73;;;5.55;;
70605;SDS011;58173;52.500;5.494;2023-04-06T11:49:29;11.77;;;5.32;;
70605;SDS011;58173;52.500;5.494;2023-04-06T11:51:56;13.02;;;5.80;;
70605;SDS011;58173;52.500;5.494;2023-04-06T11:54:36;11.27;;;5.75;;
70605;SDS011;58173;52.500;5.494;2023-04-06T11:57:04;11.20;;;5.10;;
70605;SDS011;58173;52.500;5.494;2023-04-06T11:59:32;11.15;;;5.10;;
70605;SDS011;58173;52.500;5.494;2023-04-06T12:02:00;10.18;;;3.95;;
70605;SDS011;58173;52.500;5.494;2023-04-06T12:04:27;12.38;;;4.53;;
70605;SDS011;58173;52.500;5.494;2023-04-06T12:06:55;16.38;;;4.85;;
70605;SDS011;58173;52.500;5.494;2023-04-06T12:09:22;13.68;;;4.57;;
70605;SDS011;58173;52.500;5.494;2023-04-06T12:11:49;9.75;;;4.32;;
70605;SDS011;58173;52.500;5.494;2023-04-06T12:14:17;12.98;;;4.40;;
70605;SDS011;58173;52.500;5.494;2023-04-06T12:16:44;9.43;;;3.80;;
70605;SDS011;58173;52.500;5.494;2023-04-06T12:19:11;10.20;;;3.83;;
70605;SDS011;58173;52.500;5.494;2023-04-06T12:21:38;9.30;;;3.60;;
70605;SDS011;58173;52.500;5.494;2023-04-06T12:24:06;11.63;;;4.47;;
70605;SDS011;58173;52.500;5.494;2023-04-06T12:26:34;12.57;;;4.47;;
70605;SDS011;58173;52.500;5.494;2023-04-06T12:29:03;10.07;;;4.05;;
70605;SDS011;58173;52.500;5.494;2023-04-06T12:34:01;9.10;;;3.70;;
70605;SDS011;58173;52.500;5.494;2023-04-06T12:36:29;8.98;;;3.95;;
70605;SDS011;58173;52.500;5.494;2023-04-06T12:38:57;11.35;;;4.63;;
70605;SDS011;58173;52.500;5.494;2023-04-06T12:41:24;10.30;;;4.18;;
70605;SDS011;58173;52.500;5.494;2023-04-06T12:43:52;11.32;;;4.72;;
70605;SDS011;58173;52.500;5.494;2023-04-06T12:46:19;8.98;;;3.70;;
70605;SDS011;58173;52.500;5.494;2023-04-06T12:48:46;8.82;;;3.47;;
70605;SDS011;58173;52.500;5.494;2023-04-06T12:51:14;8.15;;;3.53;;
70605;SDS011;58173;52.500;5.494;2023-04-06T12:53:41;8.55;;;2.92;;
70605;SDS011;58173;52.500;5.494;2023-04-06T12:56:16;8.32;;;3.60;;
70605;SDS011;58173;52.500;5.494;2023-04-06T12:58:44;11.98;;;5.05;;
70605;SDS011;58173;52.500;5.494;2023-04-06T13:01:11;9.32;;;4.13;;
70605;SDS011;58173;52.500;5.494;2023-04-06T13:03:42;9.43;;;4.13;;
70605;SDS011;58173;52.500;5.494;2023-04-06T13:06:09;8.82;;;3.95;;
70605;SDS011;58173;52.500;5.494;2023-04-06T13:08:37;10.93;;;4.43;;
70605;SDS011;58173;52.500;5.494;2023-04-06T13:11:05;10.38;;;4.70;;
70605;SDS011;58173;52.500;5.494;2023-04-06T13:16:03;8.18;;;3.80;;
70605;SDS011;58173;52.500;5.494;2023-04-06T13:18:31;11.25;;;4.43;;
70605;SDS011;58173;52.500;5.494;2023-04-06T13:20:58;8.90;;;3.55;;
70605;SDS011;58173;52.500;5.494;2023-04-06T13:23:26;13.10;;;3.55;;
70605;SDS011;58173;52.500;5.494;2023-04-06T13:25:59;11.43;;;3.95;;
70605;SDS011;58173;52.500;5.494;2023-04-06T13:28:27;8.07;;;3.20;;
70605;SDS011;58173;52.500;5.494;2023-04-06T13:30:54;7.60;;;3.38;;
70605;SDS011;58173;52.500;5.494;2023-04-06T13:33:22;9.40;;;4.28;;
70605;SDS011;58173;52.500;5.494;2023-04-06T13:35:49;11.30;;;3.92;;
70605;SDS011;58173;52.500;5.494;2023-04-06T13:38:16;7.95;;;3.25;;
70605;SDS011;58173;52.500;5.494;2023-04-06T13:40:43;7.55;;;2.78;;
70605;SDS011;58173;52.500;5.494;2023-04-06T13:43:11;8.70;;;3.90;;
70605;SDS011;58173;52.500;5.494;2023-04-06T13:45:38;7.45;;;3.40;;
70605;SDS011;58173;52.500;5.494;2023-04-06T13:48:05;7.45;;;2.85;;
70605;SDS011;58173;52.500;5.494;2023-04-06T13:50:33;8.35;;;3.28;;
70605;SDS011;58173;52.500;5.494;2023-04-06T13:53:01;9.43;;;3.17;;
70605;SDS011;58173;52.500;5.494;2023-04-06T13:55:28;7.93;;;3.50;;
70605;SDS011;58173;52.500;5.494;2023-04-06T13:57:57;9.00;;;4.50;;
70605;SDS011;58173;52.500;5.494;2023-04-06T14:00:24;7.00;;;2.95;;
70605;SDS011;58173;52.500;5.494;2023-04-06T14:02:53;8.27;;;3.40;;
70605;SDS011;58173;52.500;5.494;2023-04-06T14:05:21;7.43;;;3.10;;
70605;SDS011;58173;52.500;5.494;2023-04-06T14:07:50;8.20;;;3.65;;
70605;SDS011;58173;52.500;5.494;2023-04-06T14:10:16;7.05;;;3.30;;
70605;SDS011;58173;52.500;5.494;2023-04-06T14:12:47;11.80;;;5.15;;
70605;SDS011;58173;52.500;5.494;2023-04-06T14:15:14;8.75;;;3.88;;
70605;SDS011;58173;52.500;5.494;2023-04-06T14:17:41;7.53;;;3.30;;
70605;SDS011;58173;52.500;5.494;2023-04-06T14:20:08;10.00;;;4.53;;
70605;SDS011;58173;52.500;5.494;2023-04-06T14:22:40;9.90;;;4.00;;
70605;SDS011;58173;52.500;5.494;2023-04-06T14:25:09;10.60;;;4.38;;
70605;SDS011;58173;52.500;5.494;2023-04-06T14:27:37;8.85;;;3.80;;
70605;SDS011;58173;52.500;5.494;2023-04-06T14:30:04;8.07;;;3.42;;
70605;SDS011;58173;52.500;5.494;2023-04-06T14:32:32;9.63;;;4.22;;
70605;SDS011;58173;52.500;5.494;2023-04-06T14:34:59;9.32;;;4.22;;
70605;SDS011;58173;52.500;5.494;2023-04-06T14:37:26;7.97;;;3.15;;
70605;SDS011;58173;52.500;5.494;2023-04-06T14:39:54;8.10;;;3.35;;
70605;SDS011;58173;52.500;5.494;2023-04-06T14:42:21;8.75;;;3.53;;
70605;SDS011;58173;52.500;5.494;2023-04-06T14:44:48;7.82;;;3.15;;
70605;SDS011;58173;52.500;5.494;2023-04-06T14:47:15;7.40;;;3.25;;
70605;SDS011;58173;52.500;5.494;2023-04-06T14:49:47;10.40;;;4.07;;
70605;SDS011;58173;52.500;5.494;2023-04-06T14:52:14;10.85;;;5.13;;
70605;SDS011;58173;52.500;5.494;2023-04-06T14:54:41;10.07;;;3.90;;
70605;SDS011;58173;52.500;5.494;2023-04-06T14:57:08;11.68;;;5.13;;
70605;SDS011;58173;52.500;5.494;2023-04-06T14:59:37;8.20;;;3.28;;
70605;SDS011;58173;52.500;5.494;2023-04-06T15:02:05;11.32;;;5.18;;
70605;SDS011;58173;52.500;5.494;2023-04-06T15:04:36;11.70;;;5.30;;
70605;SDS011;58173;52.500;5.494;2023-04-06T15:07:03;7.80;;;3.22;;
70605;SDS011;58173;52.500;5.494;2023-04-06T15:09:31;11.57;;;4.97;;
70605;SDS011;58173;52.500;5.494;2023-04-06T15:11:58;10.80;;;5.15;;
70605;SDS011;58173;52.500;5.494;2023-04-06T15:14:26;7.45;;;2.97;;
70605;SDS011;58173;52.500;5.494;2023-04-06T15:16:53;10.82;;;4.50;;
70605;SDS011;58173;52.500;5.494;2023-04-06T15:19:21;6.90;;;2.80;;